Holgate, Ohio
Current Conditions -  °F | °C
As of 11:10 PM on Sunday 25 Jan 2015 (Local Time) from KDFI Reporting Station
Light Snow Light Snow  
Wind Chill: -14°   Ceiling: 3200
Heat Index: -7°   Visibility: 3mi
Dew Point: -11°   Wind: 12mph
Humidity: 74%   Direction: 50°NE
Pressure: 29.92"   Gusts: NA
Location:  41.25°N, 84.13°W
Report Text: KDFI 260410Z AUTO 05010KT 3SM -SN OVC032 M07/M11 A2992 RMK AO2 P0000 T10721111
Loading
Personal Weather Stations






























Interactive Weather Map New forecast layout! Learn more

10-Day Weather Forecast

Advertisements
Track Severe Weather on mobile